Time;durP1;ratioP1;P1;durP2;ratioP2;P2;SDS_P1;SDS_P2;PMS_P1;PMS_P2;Temp;Humidity;BMP_temperature;BMP_pressure;BME280_temperature;BME280_humidity;BME280_pressure;Samples;Min_cycle;Max_cycle;Signal;HPM_P1;HPM_P2
2021/03/11 00:01:36;;;;;;;34.10;19.07;;;5.70;89.50;;;;;;5055364;28;20221;-88
2021/03/11 00:04:03;;;;;;;31.03;18.20;;;5.70;89.70;;;;;;5072734;28;20194;-88
2021/03/11 00:06:32;;;;;;;33.77;21.37;;;5.70;90.00;;;;;;5055203;28;20167;-88
2021/03/11 00:09:01;;;;;;;29.67;17.77;;;5.70;90.00;;;;;;5072856;28;20183;-88
2021/03/11 00:11:30;;;;;;;38.33;20.33;;;5.70;90.10;;;;;;5073207;28;20182;-88
2021/03/11 00:14:01;;;;;;;29.27;15.27;;;5.70;90.20;;;;;;5054660;28;20286;-89
2021/03/11 00:16:28;;;;;;;38.37;22.03;;;5.70;90.50;;;;;;5054843;28;20693;-88
2021/03/11 00:19:02;;;;;;;43.63;25.47;;;5.70;90.50;;;;;;5054825;28;20179;-87
2021/03/11 00:21:30;;;;;;;32.10;19.63;;;5.70;90.60;;;;;;5075088;28;20167;-88
2021/03/11 00:24:02;;;;;;;31.53;17.93;;;5.70;90.20;;;;;;5059601;28;20253;-88
2021/03/11 00:26:34;;;;;;;34.67;19.93;;;5.70;90.40;;;;;;5058639;28;20547;-87
2021/03/11 00:29:00;;;;;;;36.27;22.00;;;5.60;90.60;;;;;;5058388;28;20269;-87
2021/03/11 00:31:32;;;;;;;43.77;25.43;;;5.70;90.50;;;;;;5058380;28;20723;-89
2021/03/11 00:34:06;;;;;;;36.20;20.83;;;5.70;90.60;;;;;;5058381;28;20188;-89
2021/03/11 00:36:38;;;;;;;43.60;24.90;;;5.70;90.60;;;;;;5058694;28;20639;-89
2021/03/11 00:39:11;;;;;;;32.87;18.63;;;5.70;90.40;;;;;;5076290;28;20164;-88
2021/03/11 00:41:45;;;;;;;26.43;16.83;;;5.70;90.50;;;;;;5058890;28;20160;-88
2021/03/11 00:44:20;;;;;;;30.17;18.67;;;5.70;90.40;;;;;;5058293;28;20245;-88
2021/03/11 00:46:51;;;;;;;39.17;23.73;;;5.60;90.50;;;;;;5058213;28;20178;-88
2021/03/11 00:49:24;;;;;;;40.30;23.70;;;5.60;90.60;;;;;;5058644;28;20626;-88
2021/03/11 00:51:57;;;;;;;41.73;24.23;;;5.60;90.40;;;;;;5058302;28;20259;-87
2021/03/11 00:54:31;;;;;;;41.20;26.50;;;5.70;90.40;;;;;;5075776;28;20213;-87
2021/03/11 00:57:04;;;;;;;26.43;16.70;;;5.70;90.50;;;;;;5058144;28;20191;-87
2021/03/11 00:59:36;;;;;;;23.77;16.70;;;5.70;90.50;;;;;;5075905;28;20167;-87
2021/03/11 01:02:03;;;;;;;27.23;16.70;;;5.70;90.30;;;;;;5057849;28;20182;-87
2021/03/11 01:04:36;;;;;;;35.73;22.13;;;5.70;90.30;;;;;;5075642;28;20202;-87
2021/03/11 01:07:05;;;;;;;40.73;24.80;;;5.70;90.50;;;;;;5057753;28;20610;-87
2021/03/11 01:09:36;;;;;;;35.67;22.43;;;5.70;90.70;;;;;;5057815;28;20175;-87
2021/03/11 01:12:07;;;;;;;26.17;15.23;;;5.70;90.50;;;;;;5075747;28;20167;-88
2021/03/11 01:14:41;;;;;;;35.07;18.53;;;5.60;90.60;;;;;;5075568;28;20195;-87
2021/03/11 01:17:12;;;;;;;38.90;25.57;;;5.70;90.30;;;;;;5057621;28;20295;-87
2021/03/11 01:19:44;;;;;;;32.97;20.73;;;5.70;90.10;;;;;;5057427;28;20209;-86
2021/03/11 01:22:12;;;;;;;37.00;24.17;;;5.60;90.40;;;;;;5057469;28;20207;-86
2021/03/11 01:24:45;;;;;;;41.20;24.37;;;5.60;90.40;;;;;;5057255;28;20206;-87
2021/03/11 01:27:20;;;;;;;26.63;16.47;;;5.60;90.00;;;;;;5057359;28;20171;-87
2021/03/11 01:29:46;;;;;;;36.20;22.13;;;5.60;90.40;;;;;;5058251;28;20264;-87
2021/03/11 01:32:19;;;;;;;34.63;21.30;;;5.60;90.20;;;;;;5057300;28;20172;-87
2021/03/11 01:34:54;;;;;;;29.83;19.13;;;5.60;90.30;;;;;;5057198;28;20637;-87
2021/03/11 01:37:26;;;;;;;33.00;20.70;;;5.50;90.30;;;;;;5057151;28;20177;-87
2021/03/11 01:39:58;;;;;;;34.43;23.20;;;5.50;90.50;;;;;;5057333;28;20647;-87
2021/03/11 01:42:24;;;;;;;24.97;17.20;;;5.50;90.50;;;;;;5056985;28;20179;-87
2021/03/11 01:45:01;;;;;;;29.73;19.37;;;5.50;90.60;;;;;;5056840;28;20232;-87
2021/03/11 01:47:36;;;;;;;37.27;22.87;;;5.50;90.70;;;;;;5056902;28;20221;-87
2021/03/11 01:50:10;;;;;;;32.13;20.17;;;5.50;90.80;;;;;;5075025;28;20178;-87
2021/03/11 01:52:47;;;;;;;28.83;18.50;;;5.40;91.00;;;;;;5057041;28;20171;-87
2021/03/11 01:55:14;;;;;;;30.93;18.20;;;5.40;91.30;;;;;;5056630;28;20223;-86
2021/03/11 01:57:41;;;;;;;30.37;17.07;;;5.40;91.30;;;;;;5074601;28;20171;-86
2021/03/11 02:00:15;;;;;;;28.47;13.23;;;5.40;91.30;;;;;;5056797;28;20229;-85
2021/03/11 02:02:46;;;;;;;27.90;16.13;;;5.30;91.40;;;;;;5056628;28;20201;-85
2021/03/11 02:05:21;;;;;;;26.50;17.17;;;5.30;91.40;;;;;;5074341;28;20289;-86
2021/03/11 02:07:57;;;;;;;37.60;23.83;;;5.30;91.50;;;;;;5056593;28;20172;-87
2021/03/11 02:10:34;;;;;;;38.40;20.07;;;5.30;91.50;;;;;;5056616;28;20536;-87
2021/03/11 02:13:36;;;;;;;28.60;17.17;;;5.30;91.50;;;;;;5056831;28;20178;-86
2021/03/11 02:16:30;;;;;;;36.53;20.57;;;5.30;91.60;;;;;;5025552;28;20268;-87
2021/03/11 02:19:24;;;;;;;26.10;15.97;;;5.30;91.60;;;;;;5074330;28;20184;-87
2021/03/11 02:22:05;;;;;;;25.17;17.00;;;5.30;91.60;;;;;;5056280;28;20170;-87
2021/03/11 02:25:25;;;;;;;27.50;15.00;;;5.30;91.80;;;;;;5056097;28;20202;-87
2021/03/11 02:28:04;;;;;;;28.10;16.23;;;5.20;91.90;;;;;;5071827;28;20192;-87
2021/03/11 02:30:34;;;;;;;33.77;20.73;;;5.20;92.00;;;;;;5056711;28;20175;-87
2021/03/11 02:33:06;;;;;;;41.17;24.47;;;5.30;92.10;;;;;;5056040;28;20639;-87
2021/03/11 02:35:38;;;;;;;40.80;24.20;;;5.30;92.10;;;;;;5056034;28;20562;-87
2021/03/11 02:38:08;;;;;;;20.93;11.23;;;5.20;92.30;;;;;;5074105;28;20151;-87
2021/03/11 02:40:41;;;;;;;32.13;19.97;;;5.30;92.30;;;;;;5055953;28;20179;-87
2021/03/11 02:43:14;;;;;;;29.40;17.57;;;5.30;92.40;;;;;;5055458;28;20257;-87
2021/03/11 02:45:45;;;;;;;30.33;19.60;;;5.30;92.50;;;;;;5073733;28;20659;-87
2021/03/11 02:48:18;;;;;;;40.17;25.03;;;5.30;92.50;;;;;;5056708;28;20213;-87
2021/03/11 02:50:51;;;;;;;32.00;17.73;;;5.30;92.70;;;;;;5056125;28;20555;-87
2021/03/11 02:53:21;;;;;;;18.63;12.43;;;5.30;92.80;;;;;;5055704;28;20253;-87
2021/03/11 02:55:58;;;;;;;30.07;18.70;;;5.30;92.80;;;;;;5055592;28;20282;-87
2021/03/11 02:58:37;;;;;;;35.27;21.73;;;5.30;92.90;;;;;;5055967;28;20208;-87
2021/03/11 03:01:09;;;;;;;20.47;11.47;;;5.30;92.90;;;;;;5055862;28;20174;-87
2021/03/11 03:03:44;;;;;;;26.70;14.90;;;5.30;93.00;;;;;;5055645;28;20199;-87
2021/03/11 03:06:17;;;;;;;38.53;23.93;;;5.40;93.00;;;;;;5055603;28;20204;-87
2021/03/11 03:08:50;;;;;;;25.90;12.53;;;5.40;92.90;;;;;;5073533;28;20173;-87
2021/03/11 03:11:21;;;;;;;30.03;17.50;;;5.30;93.00;;;;;;5056082;28;20539;-87
2021/03/11 03:13:55;;;;;;;32.63;21.43;;;5.40;93.10;;;;;;5073369;28;20186;-87
2021/03/11 03:16:25;;;;;;;33.03;20.00;;;5.40;93.10;;;;;;5055520;28;20222;-87
2021/03/11 03:18:58;;;;;;;33.17;21.73;;;5.40;93.00;;;;;;5055375;28;20170;-87
2021/03/11 03:21:27;;;;;;;29.33;18.53;;;5.50;93.10;;;;;;5055303;28;20645;-87
2021/03/11 03:24:04;;;;;;;27.93;17.80;;;5.50;93.10;;;;;;5073196;28;20195;-87
2021/03/11 03:26:35;;;;;;;20.47;13.73;;;5.50;93.10;;;;;;5073234;28;20181;-87
2021/03/11 03:29:03;;;;;;;19.70;11.80;;;5.40;93.10;;;;;;5055297;28;20179;-87
2021/03/11 03:31:34;;;;;;;27.27;17.23;;;5.50;93.10;;;;;;5055264;28;20167;-87
2021/03/11 03:34:09;;;;;;;30.80;18.33;;;5.50;93.10;;;;;;5055164;28;20202;-87
2021/03/11 03:36:46;;;;;;;27.37;17.43;;;5.50;93.10;;;;;;5073590;28;20593;-87
2021/03/11 03:39:20;;;;;;;23.30;13.20;;;5.50;93.10;;;;;;5055131;28;20174;-87
2021/03/11 03:41:58;;;;;;;25.30;16.50;;;5.50;93.10;;;;;;5073117;28;20627;-87
2021/03/11 03:44:36;;;;;;;34.80;20.97;;;5.50;93.10;;;;;;5055065;28;20615;-87
2021/03/11 03:47:11;;;;;;;20.47;11.87;;;5.50;93.20;;;;;;5055901;28;20265;-87
2021/03/11 03:49:44;;;;;;;18.17;11.90;;;5.50;93.20;;;;;;5055296;28;20646;-87
2021/03/11 03:52:18;;;;;;;30.80;19.97;;;5.50;93.10;;;;;;5054998;28;20171;-87
2021/03/11 03:54:58;;;;;;;18.10;11.27;;;5.60;93.10;;;;;;5055040;28;20217;-87
2021/03/11 03:57:31;;;;;;;25.00;16.00;;;5.60;93.10;;;;;;5059084;28;20186;-87
2021/03/11 04:00:01;;;;;;;19.17;12.63;;;5.60;93.00;;;;;;5077117;28;20171;-87
2021/03/11 04:02:36;;;;;;;27.10;17.37;;;5.60;93.00;;;;;;5077077;28;20171;-87
2021/03/11 04:05:10;;;;;;;22.13;14.73;;;5.60;93.10;;;;;;5076765;28;20199;-87
2021/03/11 04:07:41;;;;;;;25.37;17.23;;;5.60;93.10;;;;;;5058886;28;20245;-87
2021/03/11 04:10:08;;;;;;;25.40;16.00;;;5.60;93.10;;;;;;5058881;28;20185;-87
2021/03/11 04:12:36;;;;;;;29.40;18.73;;;5.60;93.20;;;;;;5058710;28;20265;-87
2021/03/11 04:15:09;;;;;;;19.00;12.40;;;5.60;93.10;;;;;;5076619;28;20194;-87
2021/03/11 04:17:48;;;;;;;20.67;11.40;;;5.60;93.10;;;;;;5058847;28;20186;-87
2021/03/11 04:20:17;;;;;;;30.30;19.17;;;5.60;93.10;;;;;;5076651;28;20167;-87
2021/03/11 04:22:50;;;;;;;27.77;18.97;;;5.70;93.20;;;;;;5058623;28;20610;-87
2021/03/11 04:25:23;;;;;;;25.33;16.50;;;5.60;93.20;;;;;;5058468;28;20238;-87
2021/03/11 04:27:50;;;;;;;31.30;21.10;;;5.70;93.20;;;;;;5058517;28;20175;-87
2021/03/11 04:30:25;;;;;;;22.33;14.33;;;5.70;93.20;;;;;;5058501;28;20183;-87
2021/03/11 04:33:00;;;;;;;24.77;17.20;;;5.70;93.20;;;;;;5058602;28;20198;-87
2021/03/11 04:35:36;;;;;;;28.50;18.43;;;5.70;93.30;;;;;;5058376;28;20243;-87
2021/03/11 04:38:08;;;;;;;30.23;19.47;;;5.60;93.30;;;;;;5058673;28;20174;-87
2021/03/11 04:40:41;;;;;;;31.83;18.57;;;5.60;93.40;;;;;;5058220;28;20179;-87
2021/03/11 04:43:14;;;;;;;25.43;17.23;;;5.70;93.40;;;;;;5076556;28;20159;-87
2021/03/11 04:45:49;;;;;;;28.73;16.13;;;5.70;93.50;;;;;;5057944;28;20554;-87
2021/03/11 04:48:21;;;;;;;27.60;17.53;;;5.70;93.40;;;;;;5076110;28;20167;-87
2021/03/11 04:50:49;;;;;;;23.33;13.10;;;5.70;93.40;;;;;;5076388;28;20180;-87
2021/03/11 04:53:16;;;;;;;21.77;12.90;;;5.70;93.40;;;;;;5058184;28;20171;-87
2021/03/11 04:55:51;;;;;;;18.10;12.10;;;5.70;93.50;;;;;;5058129;28;20191;-87
2021/03/11 04:58:23;;;;;;;16.73;10.77;;;5.70;93.50;;;;;;5058060;28;20546;-87
2021/03/11 05:00:57;;;;;;;25.43;17.90;;;5.80;93.40;;;;;;5058177;28;20183;-87
2021/03/11 05:03:31;;;;;;;19.67;11.40;;;5.70;93.40;;;;;;5057781;28;20177;-87
2021/03/11 05:05:57;;;;;;;22.83;14.77;;;5.80;93.40;;;;;;5057919;28;20568;-87
2021/03/11 05:08:36;;;;;;;23.37;15.37;;;5.80;93.40;;;;;;5075837;28;20250;-87
2021/03/11 05:11:06;;;;;;;14.70;10.00;;;5.80;93.40;;;;;;5058028;28;20265;-87
2021/03/11 05:13:39;;;;;;;25.60;15.60;;;5.80;93.50;;;;;;5057678;28;20167;-87
2021/03/11 05:16:14;;;;;;;11.63;7.60;;;5.80;93.50;;;;;;5058473;28;20203;-87
2021/03/11 05:18:40;;;;;;;20.53;14.80;;;5.80;93.50;;;;;;5075928;28;20553;-87
2021/03/11 05:21:17;;;;;;;17.50;11.37;;;5.80;93.60;;;;;;5075490;28;20183;-87
2021/03/11 05:23:51;;;;;;;10.50;7.93;;;5.80;93.60;;;;;;5075515;28;20190;-87
2021/03/11 05:26:22;;;;;;;22.87;14.20;;;5.80;93.60;;;;;;5057435;28;20577;-87
2021/03/11 05:28:51;;;;;;;19.67;13.47;;;5.80;93.60;;;;;;5057382;28;20655;-87
2021/03/11 05:31:27;;;;;;;23.70;15.37;;;5.80;93.70;;;;;;5057373;28;20167;-87
2021/03/11 05:33:58;;;;;;;16.87;11.53;;;5.80;93.70;;;;;;5057247;28;20274;-87
2021/03/11 05:36:31;;;;;;;17.90;12.20;;;5.80;93.70;;;;;;5075210;28;20182;-87
2021/03/11 05:39:04;;;;;;;14.67;9.37;;;5.90;93.80;;;;;;5057130;28;20651;-87
2021/03/11 05:41:43;;;;;;;16.50;11.40;;;5.90;93.70;;;;;;5057265;28;20273;-87
2021/03/11 05:44:19;;;;;;;11.20;7.73;;;6.00;93.60;;;;;;5056933;28;20689;-87
2021/03/11 05:46:55;;;;;;;18.37;13.07;;;6.00;93.60;;;;;;5057390;28;20262;-87
2021/03/11 05:49:28;;;;;;;20.63;12.60;;;5.90;93.60;;;;;;5074965;28;20701;-87
2021/03/11 05:52:17;;;;;;;21.67;14.33;;;5.90;93.60;;;;;;5056987;28;20175;-87
2021/03/11 05:54:50;;;;;;;19.60;13.30;;;5.90;93.70;;;;;;5074945;28;20297;-87
2021/03/11 05:57:16;;;;;;;19.23;13.87;;;5.90;93.70;;;;;;5074821;28;20205;-87
2021/03/11 05:59:50;;;;;;;18.60;12.97;;;5.90;93.70;;;;;;5074711;28;20172;-87
2021/03/11 06:02:30;;;;;;;18.97;12.90;;;5.90;93.80;;;;;;5056926;28;20552;-87
2021/03/11 06:05:06;;;;;;;14.53;10.27;;;5.90;93.80;;;;;;5056721;28;20210;-87
2021/03/11 06:07:44;;;;;;;17.43;12.10;;;6.00;93.90;;;;;;5074497;28;20171;-87
2021/03/11 06:10:20;;;;;;;15.63;10.57;;;6.00;93.90;;;;;;5056644;28;20171;-87
2021/03/11 06:12:53;;;;;;;19.07;11.80;;;6.00;93.90;;;;;;5074571;28;20175;-87
2021/03/11 06:15:33;;;;;;;14.40;10.83;;;6.00;93.90;;;;;;5056468;28;20203;-87
2021/03/11 06:18:08;;;;;;;13.90;9.07;;;6.00;93.90;;;;;;5055736;28;20170;-87
2021/03/11 06:20:40;;;;;;;15.00;10.60;;;6.00;93.90;;;;;;5056383;28;20178;-87
2021/03/11 06:23:06;;;;;;;18.23;12.33;;;6.00;93.80;;;;;;5056346;28;20183;-87
2021/03/11 06:25:39;;;;;;;16.17;10.90;;;6.10;93.90;;;;;;5056190;28;20198;-87
2021/03/11 06:28:11;;;;;;;19.30;12.97;;;6.10;93.90;;;;;;5056158;28;20263;-87
2021/03/11 06:30:41;;;;;;;15.40;9.57;;;6.10;94.00;;;;;;5074426;28;20542;-87
2021/03/11 06:33:13;;;;;;;13.43;9.17;;;6.10;94.10;;;;;;5056303;28;20174;-87
2021/03/11 06:35:53;;;;;;;17.20;11.83;;;6.10;94.10;;;;;;5074052;28;20209;-87
2021/03/11 06:38:34;;;;;;;15.40;11.00;;;6.20;94.10;;;;;;5056047;28;20183;-87
2021/03/11 06:41:06;;;;;;;12.23;9.50;;;6.20;94.20;;;;;;5055985;28;20235;-87
2021/03/11 06:43:52;;;;;;;14.67;9.83;;;6.20;94.20;;;;;;5055898;28;20646;-87
2021/03/11 06:46:26;;;;;;;14.87;10.63;;;6.30;94.20;;;;;;5055985;28;20206;-87
2021/03/11 06:49:16;;;;;;;17.73;12.23;;;6.30;94.20;;;;;;5055869;28;20719;-87
2021/03/11 06:51:42;;;;;;;14.63;10.47;;;6.30;94.00;;;;;;5056374;28;20175;-87
2021/03/11 06:54:16;;;;;;;14.90;11.03;;;6.30;93.90;;;;;;5055689;28;20210;-87
2021/03/11 06:56:48;;;;;;;16.37;11.27;;;6.40;93.90;;;;;;5055734;28;20644;-87
2021/03/11 06:59:19;;;;;;;14.30;10.10;;;6.50;93.70;;;;;;5055750;28;20172;-87
2021/03/11 07:01:56;;;;;;;14.93;10.90;;;6.50;93.70;;;;;;5073573;28;20174;-87
2021/03/11 07:04:30;;;;;;;12.73;9.40;;;6.50;93.80;;;;;;5073473;28;20190;-87
2021/03/11 07:07:14;;;;;;;13.17;11.03;;;6.60;93.70;;;;;;5055601;28;20286;-87
2021/03/11 07:09:44;;;;;;;8.20;6.23;;;6.70;93.40;;;;;;5055562;28;20176;-87
2021/03/11 07:12:17;;;;;;;13.10;8.17;;;6.80;93.30;;;;;;5055531;28;20176;-87
2021/03/11 07:14:51;;;;;;;14.77;11.33;;;6.80;93.20;;;;;;5073332;28;20199;-87
2021/03/11 07:17:28;;;;;;;10.57;7.77;;;6.80;93.20;;;;;;5073358;28;20172;-87
2021/03/11 07:20:09;;;;;;;7.80;6.47;;;6.90;93.10;;;;;;5055421;28;20184;-87
2021/03/11 07:22:37;;;;;;;13.83;10.10;;;6.90;92.90;;;;;;5073239;28;20175;-87
2021/03/11 07:25:30;;;;;;;7.97;6.43;;;7.00;92.90;;;;;;5073129;28;20763;-87
2021/03/11 07:28:02;;;;;;;14.93;7.97;;;7.00;92.90;;;;;;5073281;28;20217;-87
2021/03/11 07:30:47;;;;;;;9.53;7.67;;;7.10;92.70;;;;;;5055121;28;20226;-87
2021/03/11 07:33:20;;;;;;;8.87;7.13;;;7.20;92.40;;;;;;5055446;28;20693;-87
2021/03/11 07:35:59;;;;;;;6.63;5.53;;;7.20;92.30;;;;;;5073391;28;20260;-87
2021/03/11 07:38:32;;;;;;;9.90;7.67;;;7.30;92.30;;;;;;5073482;28;20169;-87
2021/03/11 07:41:06;;;;;;;9.40;7.63;;;7.40;92.20;;;;;;5073270;28;20205;-87
2021/03/11 07:43:33;;;;;;;13.07;9.77;;;7.40;92.10;;;;;;5073037;28;20189;-87
2021/03/11 07:46:08;;;;;;;12.87;10.30;;;7.40;92.10;;;;;;5054963;28;20206;-87
2021/03/11 07:48:39;;;;;;;11.93;9.37;;;7.40;92.10;;;;;;5073078;28;20220;-86
2021/03/11 07:51:06;;;;;;;9.60;7.30;;;7.40;92.00;;;;;;5072971;28;20201;-86
2021/03/11 07:53:36;;;;;;;7.63;6.63;;;7.40;92.10;;;;;;5054867;28;20269;-86
2021/03/11 07:56:11;;;;;;;7.97;6.33;;;7.40;92.40;;;;;;5073022;28;20191;-87
2021/03/11 07:58:46;;;;;;;12.33;9.93;;;7.40;92.60;;;;;;5072942;28;20646;-87
2021/03/11 08:01:21;;;;;;;8.70;6.17;;;7.40;92.90;;;;;;5054962;28;20190;-87
2021/03/11 08:03:54;;;;;;;12.20;6.60;;;7.40;92.90;;;;;;5054877;28;20204;-87
2021/03/11 08:06:26;;;;;;;9.37;7.27;;;7.40;93.00;;;;;;5072826;28;20194;-87
2021/03/11 08:09:00;;;;;;;9.43;6.53;;;7.40;93.10;;;;;;5072831;28;20181;-87
2021/03/11 08:11:39;;;;;;;11.07;7.80;;;7.40;93.40;;;;;;5055032;28;20174;-86
2021/03/11 08:14:34;;;;;;;13.00;7.13;;;7.40;93.30;;;;;;5054734;28;20198;-86
2021/03/11 08:17:36;;;;;;;9.70;7.97;;;7.40;93.40;;;;;;5056103;28;20247;-87
2021/03/11 08:20:10;;;;;;;8.37;7.37;;;7.40;93.50;;;;;;5072740;28;20596;-86
2021/03/11 08:23:01;;;;;;;8.93;7.07;;;7.50;93.50;;;;;;5072702;28;20191;-87
2021/03/11 08:25:41;;;;;;;7.97;6.10;;;7.60;93.40;;;;;;5072552;28;20203;-87
2021/03/11 08:28:15;;;;;;;12.80;7.03;;;7.70;93.10;;;;;;5072898;28;20686;-87
2021/03/11 08:30:41;;;;;;;8.27;6.27;;;7.70;93.00;;;;;;5054692;28;20183;-87
2021/03/11 08:33:35;;;;;;;11.10;5.40;;;7.80;92.70;;;;;;5054611;28;20185;-87
2021/03/11 08:36:06;;;;;;;8.87;5.90;;;7.90;92.50;;;;;;5072565;28;20174;-87
2021/03/11 08:38:39;;;;;;;6.10;5.13;;;8.20;92.80;;;;;;5054634;28;20194;-87
2021/03/11 08:41:08;;;;;;;8.27;7.20;;;8.40;92.20;;;;;;5054933;28;20319;-87
2021/03/11 08:43:41;;;;;;;8.37;6.37;;;8.50;92.20;;;;;;5076399;28;20548;-87
2021/03/11 08:46:11;;;;;;;6.43;5.57;;;8.60;91.70;;;;;;5058197;28;20252;-87
2021/03/11 08:49:05;;;;;;;6.73;6.07;;;8.50;91.00;;;;;;5058274;28;20175;-86
2021/03/11 08:51:39;;;;;;;6.23;4.70;;;8.30;91.40;;;;;;5058185;28;20639;-86
2021/03/11 08:54:26;;;;;;;7.43;6.13;;;8.30;92.20;;;;;;5076036;28;20205;-87
2021/03/11 08:56:58;;;;;;;7.37;6.23;;;8.40;92.30;;;;;;5076239;28;20162;-87
2021/03/11 08:59:47;;;;;;;10.30;6.23;;;8.50;91.80;;;;;;5058310;28;20178;-87
2021/03/11 09:02:32;;;;;;;9.37;7.00;;;8.50;91.90;;;;;;5075925;28;20159;-87
2021/03/11 09:05:05;;;;;;;8.47;6.00;;;8.60;91.90;;;;;;5057786;28;20659;-87
2021/03/11 09:07:34;;;;;;;9.60;7.17;;;8.70;92.00;;;;;;5057773;28;20179;-87
2021/03/11 09:10:16;;;;;;;5.03;4.53;;;8.80;91.30;;;;;;5057819;28;20198;-87
2021/03/11 09:12:45;;;;;;;6.13;4.60;;;8.80;91.20;;;;;;5075797;28;20237;-87
2021/03/11 09:15:16;;;;;;;6.20;5.20;;;8.80;90.50;;;;;;5057641;28;20203;-87
2021/03/11 09:17:49;;;;;;;8.13;5.50;;;8.90;90.20;;;;;;5057724;28;20183;-86
2021/03/11 09:20:17;;;;;;;7.37;5.53;;;9.00;90.40;;;;;;5057651;28;20179;-86
2021/03/11 09:22:50;;;;;;;10.00;5.67;;;9.00;90.40;;;;;;5075723;28;20178;-86
2021/03/11 09:25:20;;;;;;;6.17;5.27;;;9.00;89.90;;;;;;5057421;28;20770;-86
2021/03/11 09:27:58;;;;;;;7.40;5.60;;;9.10;89.70;;;;;;5057510;28;20687;-87
2021/03/11 09:30:28;;;;;;;11.57;6.00;;;9.20;89.90;;;;;;5075284;28;20205;-87
2021/03/11 09:33:07;;;;;;;10.73;6.83;;;9.40;89.70;;;;;;5057268;28;20223;-87
2021/03/11 09:35:36;;;;;;;6.90;5.77;;;9.60;89.10;;;;;;5057269;28;20208;-86
2021/03/11 09:38:11;;;;;;;11.23;7.00;;;9.60;88.80;;;;;;5075215;28;20177;-86
2021/03/11 09:40:43;;;;;;;8.80;5.07;;;9.80;88.50;;;;;;5057725;28;20173;-86
2021/03/11 09:43:21;;;;;;;10.13;8.27;;;9.90;88.60;;;;;;5057212;28;20183;-87
2021/03/11 09:46:20;;;;;;;7.90;6.73;;;10.10;88.20;;;;;;5074911;28;20332;-87
2021/03/11 09:48:55;;;;;;;8.43;5.63;;;10.20;87.50;;;;;;5057055;28;20246;-86
2021/03/11 09:51:34;;;;;;;7.50;6.03;;;10.30;88.20;;;;;;5074852;28;20178;-87
2021/03/11 09:54:04;;;;;;;13.97;7.63;;;10.30;87.20;;;;;;5055451;28;20211;-87
2021/03/11 09:56:41;;;;;;;7.20;6.43;;;10.50;87.70;;;;;;5056857;28;20179;-87
2021/03/11 09:59:16;;;;;;;10.17;5.87;;;10.40;86.20;;;;;;5074780;28;20201;-87
2021/03/11 10:01:53;;;;;;;5.80;4.77;;;10.30;85.50;;;;;;5056819;28;20179;-87
2021/03/11 10:04:28;;;;;;;9.53;5.17;;;10.30;85.30;;;;;;5056644;28;20203;-87
2021/03/11 10:07:02;;;;;;;14.67;4.83;;;10.30;84.80;;;;;;5056723;28;20163;-86
2021/03/11 10:09:49;;;;;;;9.00;5.13;;;10.30;84.40;;;;;;5074839;28;20175;-87
2021/03/11 10:12:40;;;;;;;8.00;4.47;;;10.10;85.10;;;;;;5074573;28;20308;-87
2021/03/11 10:15:18;;;;;;;11.00;6.70;;;10.10;84.40;;;;;;5056808;28;20199;-87
2021/03/11 10:17:45;;;;;;;9.23;5.97;;;10.20;85.00;;;;;;5057087;28;20178;-86
2021/03/11 10:20:30;;;;;;;4.30;3.90;;;10.40;84.00;;;;;;5056449;28;20176;-87
2021/03/11 10:23:20;;;;;;;7.03;4.20;;;10.40;83.40;;;;;;5056363;28;20290;-87
2021/03/11 10:26:17;;;;;;;6.27;3.87;;;10.20;84.50;;;;;;5074155;28;20677;-87
2021/03/11 10:28:51;;;;;;;10.83;5.07;;;9.80;85.60;;;;;;5056505;28;20175;-88
2021/03/11 10:31:29;;;;;;;7.33;4.00;;;9.60;86.50;;;;;;5074184;28;20172;-88
2021/03/11 10:34:11;;;;;;;6.17;2.47;;;9.30;86.30;;;;;;5056200;28;20199;-88
2021/03/11 10:37:00;;;;;;;5.10;2.27;;;9.40;79.90;;;;;;5056114;28;20179;-86
2021/03/11 10:39:33;;;;;;;5.83;2.70;;;9.20;82.40;;;;;;5056867;28;20579;-87
2021/03/11 10:42:09;;;;;;;5.50;2.17;;;8.90;82.90;;;;;;5074110;28;20535;-87
2021/03/11 10:44:39;;;;;;;4.53;2.10;;;8.80;83.70;;;;;;5056155;28;20209;-87
2021/03/11 10:47:21;;;;;;;8.03;1.60;;;9.00;84.90;;;;;;5055947;28;20635;-87
2021/03/11 10:49:57;;;;;;;8.30;2.77;;;9.60;84.80;;;;;;5073787;28;20662;-86
2021/03/11 10:52:31;;;;;;;3.57;2.07;;;9.60;83.50;;;;;;5056034;28;20175;-87
2021/03/11 10:54:57;;;;;;;8.47;2.20;;;9.60;83.40;;;;;;5162750;22;20904;-86
2021/03/11 10:57:36;;;;;;;9.20;2.50;;;9.50;82.60;;;;;;5073661;28;20263;-86
2021/03/11 11:00:11;;;;;;;10.93;3.40;;;9.50;82.90;;;;;;5055668;28;20171;-87
2021/03/11 11:02:51;;;;;;;9.60;3.23;;;10.00;82.70;;;;;;5055519;28;20171;-86
2021/03/11 11:05:26;;;;;;;5.60;2.30;;;10.10;82.90;;;;;;5054990;28;20702;-86
2021/03/11 11:08:00;;;;;;;5.90;1.97;;;10.30;82.40;;;;;;5055791;28;20170;-86
2021/03/11 11:10:32;;;;;;;4.33;2.03;;;10.50;82.10;;;;;;5055425;28;20171;-86
2021/03/11 11:13:06;;;;;;;13.00;3.90;;;10.70;83.00;;;;;;5073442;28;20666;-86
2021/03/11 11:15:37;;;;;;;12.70;3.37;;;10.70;81.90;;;;;;5073451;28;20198;-86
2021/03/11 11:18:09;;;;;;;5.97;2.33;;;10.80;82.80;;;;;;5055399;28;20186;-86
2021/03/11 11:20:41;;;;;;;21.63;3.33;;;10.80;82.00;;;;;;5073582;28;20548;-86
2021/03/11 11:23:12;;;;;;;12.77;3.37;;;10.60;82.60;;;;;;5055295;28;20544;-86
2021/03/11 11:25:44;;;;;;;9.37;3.07;;;10.60;82.50;;;;;;5073092;28;20199;-86
2021/03/11 11:28:20;;;;;;;4.53;2.27;;;10.50;83.10;;;;;;5073337;28;20203;-87
2021/03/11 11:30:51;;;;;;;7.97;3.03;;;10.30;84.20;;;;;;5073224;28;20243;-86
2021/03/11 11:33:24;;;;;;;17.33;4.40;;;10.20;82.90;;;;;;5055215;28;20175;-86
2021/03/11 11:36:01;;;;;;;11.73;3.30;;;10.00;85.50;;;;;;5073050;28;20195;-86
2021/03/11 11:38:31;;;;;;;14.13;2.87;;;9.90;84.80;;;;;;5073439;28;20155;-86
2021/03/11 11:41:04;;;;;;;11.07;3.93;;;9.70;83.90;;;;;;5054978;28;20171;-87
2021/03/11 11:43:41;;;;;;;7.73;2.80;;;9.30;85.30;;;;;;5073120;28;20230;-87
2021/03/11 11:46:15;;;;;;;7.13;2.63;;;9.20;86.10;;;;;;5073374;28;20206;-86
2021/03/11 11:48:47;;;;;;;9.73;2.37;;;9.30;83.70;;;;;;5073067;28;20190;-87
2021/03/11 11:51:21;;;;;;;6.67;3.43;;;9.20;84.80;;;;;;5054978;28;20180;-86
2021/03/11 11:53:55;;;;;;;12.87;3.37;;;9.20;86.50;;;;;;5055095;28;20167;-86
2021/03/11 11:56:28;;;;;;;8.80;2.50;;;9.20;86.90;;;;;;5072757;28;20308;-85
2021/03/11 11:59:01;;;;;;;6.80;2.47;;;9.40;85.30;;;;;;5073012;28;20159;-86
2021/03/11 12:01:36;;;;;;;5.17;2.07;;;9.80;82.80;;;;;;5072859;28;20176;-86
2021/03/11 12:04:11;;;;;;;7.70;2.23;;;9.90;83.50;;;;;;5073124;28;20166;-86
2021/03/11 12:06:47;;;;;;;6.70;1.60;;;10.00;83.20;;;;;;5072709;28;20562;-85
2021/03/11 12:09:17;;;;;;;11.47;3.23;;;10.10;83.20;;;;;;5073092;28;20206;-85
2021/03/11 12:11:47;;;;;;;13.07;2.90;;;10.20;81.10;;;;;;5055118;28;20176;-86
2021/03/11 12:14:19;;;;;;;5.70;2.33;;;10.10;82.00;;;;;;5055059;28;20201;-87
2021/03/11 12:16:49;;;;;;;8.63;2.47;;;10.30;80.00;;;;;;5056137;28;20651;-86
2021/03/11 12:19:21;;;;;;;9.60;2.60;;;10.20;81.60;;;;;;5076931;28;20565;-86
2021/03/11 12:21:58;;;;;;;11.23;2.40;;;10.10;80.20;;;;;;5059073;28;20237;-85
2021/03/11 12:24:31;;;;;;;10.97;2.80;;;9.60;84.30;;;;;;5076378;28;20174;-85
2021/03/11 12:27:01;;;;;;;11.87;2.13;;;9.80;85.40;;;;;;5058442;28;20575;-85
2021/03/11 12:29:36;;;;;;;15.13;2.90;;;9.80;84.70;;;;;;5058447;28;20171;-85
2021/03/11 12:32:10;;;;;;;9.93;2.80;;;9.80;84.50;;;;;;5076378;28;20178;-85
2021/03/11 12:34:44;;;;;;;7.63;2.57;;;9.90;83.90;;;;;;5058352;28;20195;-85
2021/03/11 12:37:21;;;;;;;7.47;2.57;;;9.90;84.60;;;;;;5058295;28;20198;-84
2021/03/11 12:39:58;;;;;;;12.90;2.53;;;10.10;83.80;;;;;;5058291;28;20175;-85
2021/03/11 12:42:31;;;;;;;9.07;2.30;;;10.10;81.70;;;;;;5076415;28;20155;-85
2021/03/11 12:45:02;;;;;;;7.70;2.60;;;10.20;80.20;;;;;;5058056;28;20229;-85
2021/03/11 12:47:32;;;;;;;13.97;3.03;;;10.10;80.50;;;;;;5076054;28;20171;-85
2021/03/11 12:50:06;;;;;;;12.27;3.17;;;10.00;82.00;;;;;;5076028;28;20170;-86
2021/03/11 12:52:40;;;;;;;11.87;3.10;;;9.80;82.40;;;;;;5058027;28;20171;-85
2021/03/11 12:55:08;;;;;;;16.03;2.50;;;9.80;82.90;;;;;;5075876;28;20210;-86
2021/03/11 12:57:41;;;;;;;22.67;3.07;;;9.70;83.10;;;;;;5075940;28;20708;-86
2021/03/11 13:00:13;;;;;;;14.00;2.77;;;9.60;84.30;;;;;;5075876;28;20182;-86
2021/03/11 13:02:47;;;;;;;15.20;3.20;;;9.50;84.90;;;;;;5057787;28;20183;-86
2021/03/11 13:05:21;;;;;;;15.50;3.63;;;9.30;85.60;;;;;;5058214;28;20195;-86
2021/03/11 13:07:55;;;;;;;13.63;2.67;;;9.30;86.00;;;;;;5075715;28;20171;-86
2021/03/11 13:10:29;;;;;;;14.17;2.80;;;9.10;86.60;;;;;;5057718;28;20183;-86
2021/03/11 13:13:01;;;;;;;15.13;3.40;;;9.10;86.70;;;;;;5075601;28;20639;-86
2021/03/11 13:15:36;;;;;;;14.10;2.60;;;9.00;87.40;;;;;;5057656;28;20192;-86
2021/03/11 13:18:11;;;;;;;11.90;3.47;;;9.00;87.10;;;;;;5057587;28;20179;-86
2021/03/11 13:20:49;;;;;;;15.80;3.33;;;8.90;88.00;;;;;;5075567;28;20178;-86